Time;durP1;ratioP1;P1;durP2;ratioP2;P2;SDS_P1;SDS_P2;PMS_P1;PMS_P2;Temp;Humidity;BMP_temperature;BMP_pressure;BME280_temperature;BME280_humidity;BME280_pressure;Samples;Min_cycle;Max_cycle;Signal;HPM_P1;HPM_P2
2022/07/15 00:01:01;;;;;;;7.60;2.22;;;;;;;14.26;70.18;102163.97;4993888;28;20033;-85
2022/07/15 00:03:26;;;;;;;8.73;2.40;;;;;;;14.18;70.11;102155.44;5009592;28;20481;-86
2022/07/15 00:05:52;;;;;;;7.07;2.60;;;;;;;14.13;70.05;102166.69;5009671;28;20508;-85
2022/07/15 00:08:17;;;;;;;7.63;2.45;;;;;;;14.09;70.75;102161.53;5009585;28;20412;-85
2022/07/15 00:10:42;;;;;;;5.72;2.50;;;;;;;14.06;70.16;102172.66;5009777;28;20381;-85
2022/07/15 00:13:08;;;;;;;6.43;2.63;;;;;;;13.98;70.68;102156.72;5021994;28;20026;-85
2022/07/15 00:15:33;;;;;;;8.23;2.92;;;;;;;13.97;70.96;102155.84;5010737;28;20483;-85
2022/07/15 00:18:03;;;;;;;4.18;2.13;;;;;;;13.92;70.08;102162.63;5015106;28;20549;-85
2022/07/15 00:20:36;;;;;;;6.90;2.28;;;;;;;13.90;70.13;102161.84;4992968;28;20104;-86
2022/07/15 00:23:06;;;;;;;3.75;2.35;;;;;;;13.90;69.75;102165.47;4993198;28;20455;-87
2022/07/15 00:25:32;;;;;;;5.57;2.50;;;;;;;13.85;70.34;102169.44;5012735;28;20433;-85
2022/07/15 00:28:00;;;;;;;6.95;2.40;;;;;;;13.77;71.43;102161.75;5011952;28;20422;-85
2022/07/15 00:30:31;;;;;;;10.40;2.60;;;;;;;13.72;70.86;102159.31;5010954;28;20052;-86
2022/07/15 00:32:57;;;;;;;8.55;2.42;;;;;;;13.75;70.30;102158.22;5019614;28;20481;-85
2022/07/15 00:35:22;;;;;;;7.20;2.70;;;;;;;13.71;71.07;102162.16;5009515;28;20127;-86
2022/07/15 00:37:48;;;;;;;6.85;2.88;;;;;;;13.63;71.38;102150.84;4992535;28;20622;-85
2022/07/15 00:40:13;;;;;;;7.05;2.35;;;;;;;13.60;70.40;102145.56;5010126;28;20022;-85
2022/07/15 00:42:44;;;;;;;7.60;2.30;;;;;;;13.60;71.24;102164.69;4991853;28;20152;-86
2022/07/15 00:45:20;;;;;;;5.68;2.35;;;;;;;13.49;72.23;102151.72;5007936;28;20038;-86
2022/07/15 00:47:51;;;;;;;4.95;2.13;;;;;;;13.48;72.44;102159.06;5012146;28;20033;-85
2022/07/15 00:50:18;;;;;;;7.03;2.55;;;;;;;13.46;71.13;102149.19;5024250;28;20507;-86
2022/07/15 00:52:48;;;;;;;6.90;2.33;;;;;;;13.43;71.68;102157.56;4992288;28;20052;-86
2022/07/15 00:55:13;;;;;;;5.38;2.25;;;;;;;13.38;71.65;102159.72;5004100;28;20041;-85
2022/07/15 00:57:44;;;;;;;6.47;2.45;;;;;;;13.32;71.11;102163.72;5020222;28;20445;-85
2022/07/15 01:00:11;;;;;;;6.22;2.30;;;;;;;13.22;71.56;102155.22;5008892;28;20486;-85
2022/07/15 01:02:39;;;;;;;8.20;3.15;;;;;;;13.13;72.26;102153.03;5008329;28;20112;-85
2022/07/15 01:05:06;;;;;;;4.43;2.50;;;;;;;13.09;72.64;102151.44;5008520;28;20130;-85
2022/07/15 01:07:32;;;;;;;5.03;2.33;;;;;;;13.09;71.95;102159.66;5024468;28;20036;-86
2022/07/15 01:09:59;;;;;;;4.90;1.98;;;;;;;13.04;71.78;102159.06;5009382;28;20045;-85
2022/07/15 01:12:25;;;;;;;5.75;1.90;;;;;;;12.97;72.21;102147.63;5021900;28;20527;-85
2022/07/15 01:14:51;;;;;;;6.18;2.58;;;;;;;12.98;72.24;102152.13;5023420;28;20030;-85
2022/07/15 01:17:17;;;;;;;5.85;2.00;;;;;;;12.97;72.41;102149.50;5008283;28;20048;-86
2022/07/15 01:19:42;;;;;;;6.47;2.55;;;;;;;12.91;72.59;102142.53;5008169;28;20059;-85
2022/07/15 01:22:09;;;;;;;5.72;2.17;;;;;;;12.91;72.48;102145.25;5008003;28;20030;-86
2022/07/15 01:24:35;;;;;;;5.88;2.25;;;;;;;12.91;73.28;102160.78;5008716;28;20065;-86
2022/07/15 01:27:15;;;;;;;7.20;2.58;;;;;;;12.88;73.34;102155.53;4992623;28;20452;-86
2022/07/15 01:29:41;;;;;;;6.18;2.15;;;;;;;12.84;72.03;102156.69;5022683;28;20060;-85
2022/07/15 01:32:07;;;;;;;7.60;2.42;;;;;;;12.82;73.06;102162.22;4991304;28;20026;-85
2022/07/15 01:34:32;;;;;;;4.28;2.00;;;;;;;12.79;73.56;102167.88;5023811;28;20036;-85
2022/07/15 01:36:58;;;;;;;5.88;1.95;;;;;;;12.77;73.31;102172.53;4991557;28;20037;-85
2022/07/15 01:39:23;;;;;;;9.88;2.30;;;;;;;12.70;73.23;102171.16;5008204;28;20030;-86
2022/07/15 01:41:49;;;;;;;9.13;2.47;;;;;;;12.66;72.56;102170.47;4996653;28;20056;-86
2022/07/15 01:44:17;;;;;;;5.90;2.70;;;;;;;12.63;73.77;102170.63;5007334;28;20040;-86
2022/07/15 01:46:44;;;;;;;5.00;2.08;;;;;;;12.59;72.78;102176.38;5007372;28;20104;-86
2022/07/15 01:49:21;;;;;;;5.63;2.20;;;;;;;12.53;73.62;102169.44;4991224;28;20029;-85
2022/07/15 01:52:08;;;;;;;3.38;1.77;;;;;;;12.49;73.36;102173.31;5008112;28;20064;-85
2022/07/15 01:54:35;;;;;;;8.43;2.47;;;;;;;12.45;74.33;102177.19;4991760;28;20029;-85
2022/07/15 01:57:02;;;;;;;6.03;2.22;;;;;;;12.40;74.23;102182.94;5020616;28;20500;-86
2022/07/15 01:59:29;;;;;;;5.35;2.35;;;;;;;12.35;73.60;102176.84;5013780;28;20416;-85
2022/07/15 02:01:57;;;;;;;3.88;2.17;;;;;;;12.30;73.70;102180.81;5007553;28;20209;-86
2022/07/15 02:04:23;;;;;;;3.00;2.17;;;;;;;12.29;74.01;102179.94;5008625;28;20029;-85
2022/07/15 02:06:49;;;;;;;7.68;2.38;;;;;;;12.27;74.24;102183.75;5023537;28;20461;-86
2022/07/15 02:09:16;;;;;;;2.45;1.50;;;;;;;12.20;73.78;102173.19;5023139;28;20103;-84
2022/07/15 02:11:45;;;;;;;7.95;2.90;;;;;;;12.13;74.51;102170.91;5006538;28;20064;-86
2022/07/15 02:14:11;;;;;;;4.78;2.40;;;;;;;12.13;74.08;102179.97;4990968;28;20452;-87
2022/07/15 02:16:37;;;;;;;4.63;2.30;;;;;;;12.11;74.85;102178.28;5007070;28;20026;-85
2022/07/15 02:19:08;;;;;;;5.97;2.10;;;;;;;12.08;74.59;102168.44;5006664;28;20053;-86
2022/07/15 02:21:34;;;;;;;11.82;2.63;;;;;;;12.08;74.92;102164.84;5024017;28;20044;-86
2022/07/15 02:24:00;;;;;;;4.25;1.92;;;;;;;12.10;73.81;102171.97;5006771;28;20140;-85
2022/07/15 02:26:26;;;;;;;5.68;2.00;;;;;;;12.11;73.96;102175.56;5017183;28;20042;-85
2022/07/15 02:28:53;;;;;;;5.57;2.30;;;;;;;12.09;73.80;102169.31;4997657;28;20030;-85
2022/07/15 02:31:19;;;;;;;4.32;2.38;;;;;;;12.05;73.86;102167.75;5006919;28;20030;-87
2022/07/15 02:33:45;;;;;;;4.20;2.28;;;;;;;12.01;74.06;102172.47;5006337;28;20029;-85
2022/07/15 02:36:10;;;;;;;2.80;1.90;;;;;;;11.93;74.11;102167.47;5026216;28;20121;-86
2022/07/15 02:38:36;;;;;;;6.13;1.92;;;;;;;11.91;74.38;102165.81;5008847;28;20037;-85
2022/07/15 02:41:02;;;;;;;5.50;1.92;;;;;;;11.87;75.01;102172.38;5027061;28;20522;-85
2022/07/15 02:43:29;;;;;;;6.97;2.25;;;;;;;11.84;74.45;102158.91;5005120;28;20450;-85
2022/07/15 02:45:55;;;;;;;4.60;2.13;;;;;;;11.79;75.75;102167.31;5023262;28;20378;-85
2022/07/15 02:48:21;;;;;;;8.15;3.03;;;;;;;11.81;75.54;102168.13;5023105;28;20077;-86
2022/07/15 02:50:49;;;;;;;7.18;2.80;;;;;;;11.78;75.56;102171.03;5021733;28;20176;-86
2022/07/15 02:53:17;;;;;;;5.15;2.20;;;;;;;11.77;75.16;102169.28;4990399;28;20029;-86
2022/07/15 02:55:43;;;;;;;6.47;2.28;;;;;;;11.74;75.72;102175.75;4990384;28;20600;-86
2022/07/15 02:58:08;;;;;;;6.30;2.45;;;;;;;11.76;75.08;102178.44;5021254;28;20138;-86
2022/07/15 03:00:34;;;;;;;4.93;1.90;;;;;;;11.71;75.15;102180.53;5024817;28;20400;-86
2022/07/15 03:03:02;;;;;;;6.75;2.50;;;;;;;11.69;75.02;102187.91;5026509;28;20369;-85
2022/07/15 03:05:28;;;;;;;5.03;2.08;;;;;;;11.73;74.50;102192.22;5005231;28;20128;-86
2022/07/15 03:07:53;;;;;;;3.50;2.25;;;;;;;11.68;75.37;102205.22;4989777;28;20466;-86
2022/07/15 03:10:19;;;;;;;7.30;2.78;;;;;;;11.66;75.55;102207.19;5006720;28;20030;-85
2022/07/15 03:12:47;;;;;;;7.38;2.40;;;;;;;11.59;75.82;102201.16;5002605;28;20507;-85
2022/07/15 03:15:12;;;;;;;8.52;2.10;;;;;;;11.56;75.16;102201.31;5004841;28;20041;-85
2022/07/15 03:17:41;;;;;;;5.60;2.30;;;;;;;11.50;75.64;102199.81;4989983;28;20030;-86
2022/07/15 03:20:10;;;;;;;4.38;2.42;;;;;;;11.48;75.89;102206.34;5007133;28;20581;-86
2022/07/15 03:22:41;;;;;;;7.03;2.65;;;;;;;11.44;75.22;102205.59;5010068;28;20331;-86
2022/07/15 03:25:07;;;;;;;9.35;2.65;;;;;;;11.42;76.67;102206.63;4993968;28;20045;-85
2022/07/15 03:27:33;;;;;;;6.30;2.70;;;;;;;11.38;76.52;102205.06;5020150;28;20041;-86
2022/07/15 03:29:59;;;;;;;3.88;2.50;;;;;;;11.36;76.55;102196.97;5009031;28;20026;-86
2022/07/15 03:32:25;;;;;;;8.43;2.45;;;;;;;11.43;75.89;102212.03;4993885;28;20038;-86
2022/07/15 03:34:51;;;;;;;4.18;2.53;;;;;;;11.47;76.08;102216.34;5010231;28;20539;-87
2022/07/15 03:37:19;;;;;;;6.65;2.58;;;;;;;11.46;75.92;102217.28;4993828;28;20064;-87
2022/07/15 03:39:47;;;;;;;5.18;2.53;;;;;;;11.47;75.69;102213.63;4994080;28;20470;-85
2022/07/15 03:42:12;;;;;;;10.50;2.92;;;;;;;11.52;75.91;102218.81;4992214;28;20049;-86
2022/07/15 03:44:40;;;;;;;4.15;2.08;;;;;;;11.50;76.81;102221.63;5009652;28;20041;-85
2022/07/15 03:47:06;;;;;;;4.05;2.30;;;;;;;11.51;75.87;102219.78;5020724;28;20451;-86
2022/07/15 03:49:31;;;;;;;5.78;2.70;;;;;;;11.53;76.62;102220.59;5015499;28;20480;-87
2022/07/15 03:51:59;;;;;;;3.88;2.30;;;;;;;11.56;76.36;102227.69;5029340;28;20017;-86
2022/07/15 03:54:25;;;;;;;2.63;2.13;;;;;;;11.54;75.00;102232.38;5013614;28;20410;-86
2022/07/15 03:56:51;;;;;;;4.25;2.30;;;;;;;11.56;74.93;102233.16;5022019;28;20459;-87
2022/07/15 03:59:22;;;;;;;9.85;2.17;;;;;;;11.55;75.95;102243.16;5006960;28;20030;-87
2022/07/15 04:01:49;;;;;;;5.70;2.47;;;;;;;11.58;75.30;102233.97;5025844;28;20117;-86
2022/07/15 04:04:15;;;;;;;3.50;2.33;;;;;;;11.58;76.41;102240.28;5025342;28;20030;-86
2022/07/15 04:06:41;;;;;;;6.25;2.58;;;;;;;11.61;76.66;102242.88;5009362;28;20453;-85
2022/07/15 04:09:07;;;;;;;3.97;2.00;;;;;;;11.64;76.52;102244.53;5009574;28;20064;-86
2022/07/15 04:11:33;;;;;;;6.38;2.55;;;;;;;11.68;76.68;102238.81;5009643;28;20397;-86
2022/07/15 04:13:59;;;;;;;6.65;2.60;;;;;;;11.75;76.42;102240.25;5009297;28;20033;-85
2022/07/15 04:16:25;;;;;;;6.85;1.95;;;;;;;11.75;76.58;102253.00;5009543;28;20046;-86
2022/07/15 04:18:52;;;;;;;3.88;2.10;;;;;;;11.79;77.07;102249.13;5024042;28;20045;-85
2022/07/15 04:21:17;;;;;;;4.13;2.10;;;;;;;11.86;76.85;102244.25;5025772;28;20037;-86
2022/07/15 04:23:43;;;;;;;5.80;2.55;;;;;;;11.95;76.80;102244.63;4992913;28;20034;-84
2022/07/15 04:26:09;;;;;;;6.72;2.60;;;;;;;11.99;77.41;102243.50;5013643;28;20083;-84
2022/07/15 04:28:34;;;;;;;4.03;2.50;;;;;;;12.04;77.90;102237.78;5008139;28;20665;-86
2022/07/15 04:31:00;;;;;;;8.73;2.40;;;;;;;12.13;77.04;102239.13;5026178;28;20042;-85
2022/07/15 04:33:33;;;;;;;4.40;2.28;;;;;;;12.22;76.81;102250.38;4993370;28;20026;-87
2022/07/15 04:35:58;;;;;;;4.82;2.65;;;;;;;12.33;77.48;102241.56;5007747;28;20457;-85
2022/07/15 04:38:24;;;;;;;8.15;3.00;;;;;;;12.40;77.09;102251.19;4992603;28;20033;-87
2022/07/15 04:40:49;;;;;;;4.85;3.17;;;;;;;12.49;77.29;102249.75;5008873;28;20044;-87
2022/07/15 04:43:17;;;;;;;9.43;2.90;;;;;;;12.61;77.17;102253.63;5006443;28;20472;-86
2022/07/15 04:45:45;;;;;;;7.35;2.60;;;;;;;12.61;76.94;102249.03;5024613;28;20080;-86
2022/07/15 04:50:58;;;;;;;6.72;3.08;;;;;;;12.78;77.46;102250.78;5023912;28;20065;-87
2022/07/15 04:53:25;;;;;;;8.10;3.10;;;;;;;12.83;77.61;102245.06;4992329;28;20025;-86
2022/07/15 04:55:52;;;;;;;8.52;3.67;;;;;;;12.87;77.68;102249.34;5008619;28;20037;-86
2022/07/15 04:58:17;;;;;;;7.63;3.25;;;;;;;12.94;76.82;102248.03;5018213;28;20092;-86
2022/07/15 05:00:46;;;;;;;7.90;3.60;;;;;;;13.01;76.33;102250.31;5014520;28;20038;-86
2022/07/15 05:03:14;;;;;;;9.43;3.10;;;;;;;12.99;76.73;102246.75;4992358;28;20038;-86
2022/07/15 05:05:39;;;;;;;7.80;3.65;;;;;;;12.96;77.34;102246.06;5002701;28;20458;-85
2022/07/15 05:08:07;;;;;;;8.88;3.78;;;;;;;12.99;77.63;102254.09;5013846;28;20041;-88
2022/07/15 05:10:35;;;;;;;5.25;3.30;;;;;;;12.99;77.18;102249.50;5024841;28;20034;-85
2022/07/15 05:13:04;;;;;;;11.50;3.88;;;;;;;13.01;76.03;102246.69;5017840;28;20445;-86
2022/07/15 05:15:30;;;;;;;9.90;4.32;;;;;;;13.02;76.62;102251.19;5025764;28;20029;-86
2022/07/15 05:17:59;;;;;;;9.57;3.72;;;;;;;13.03;76.30;102251.06;5010763;28;20064;-86
2022/07/15 05:20:26;;;;;;;10.25;3.70;;;;;;;13.06;76.26;102252.75;5009423;28;20061;-87
2022/07/15 05:22:51;;;;;;;11.77;4.03;;;;;;;13.07;76.63;102250.91;5005240;28;20096;-87
2022/07/15 05:25:18;;;;;;;9.88;3.60;;;;;;;13.10;76.65;102258.88;5007976;28;20076;-86
2022/07/15 05:27:44;;;;;;;14.27;3.60;;;;;;;13.11;75.68;102257.94;5021299;28;20611;-86
2022/07/15 05:30:12;;;;;;;10.10;3.67;;;;;;;13.11;76.63;102257.94;5002683;28;20103;-86
2022/07/15 05:32:38;;;;;;;7.70;3.72;;;;;;;13.13;76.67;102269.66;5008300;28;20037;-86
2022/07/15 05:35:14;;;;;;;10.82;4.00;;;;;;;13.17;75.96;102263.91;5007281;28;20042;-87
2022/07/15 05:37:40;;;;;;;5.20;3.22;;;;;;;13.19;76.76;102253.75;5008026;28;20045;-87
2022/07/15 05:40:08;;;;;;;9.43;3.22;;;;;;;13.24;76.14;102256.22;5004535;28;20586;-87
2022/07/15 05:42:41;;;;;;;7.95;3.05;;;;;;;13.24;76.22;102246.22;5019918;28;20045;-87
2022/07/15 05:45:08;;;;;;;8.15;3.03;;;;;;;13.30;75.83;102261.34;5022243;28;20433;-85
2022/07/15 05:47:36;;;;;;;6.68;3.83;;;;;;;13.33;76.47;102247.47;5021401;28;20504;-85
2022/07/15 05:50:02;;;;;;;9.68;4.10;;;;;;;13.40;76.21;102259.78;5025578;28;20040;-86
2022/07/15 05:52:30;;;;;;;8.50;3.47;;;;;;;13.46;77.29;102247.59;5027589;28;20037;-86
2022/07/15 05:54:55;;;;;;;7.47;3.75;;;;;;;13.51;77.07;102249.06;5027929;28;20452;-86
2022/07/15 05:57:23;;;;;;;7.63;2.95;;;;;;;13.57;77.29;102250.56;5005678;28;21387;-87
2022/07/15 05:59:49;;;;;;;11.80;2.92;;;;;;;13.61;76.62;102246.63;4996358;28;20404;-87
2022/07/15 06:02:16;;;;;;;8.30;3.42;;;;;;;13.65;76.45;102250.06;5010791;28;20038;-87
2022/07/15 06:04:42;;;;;;;5.57;2.47;;;;;;;13.67;75.83;102259.06;5006220;28;20034;-85
2022/07/15 06:07:08;;;;;;;5.80;2.90;;;;;;;13.71;75.18;102253.31;5020033;28;20029;-85
2022/07/15 06:09:34;;;;;;;6.35;2.67;;;;;;;13.72;76.78;102248.72;5027850;28;20048;-87
2022/07/15 06:11:59;;;;;;;4.47;2.38;;;;;;;13.75;76.14;102246.63;5024546;28;20048;-88
2022/07/15 06:14:25;;;;;;;14.70;3.63;;;;;;;13.82;76.62;102254.47;5004375;28;20041;-87
2022/07/15 06:16:50;;;;;;;6.75;2.15;;;;;;;13.86;75.57;102245.97;4990926;28;20034;-87
2022/07/15 06:19:16;;;;;;;4.35;1.90;;;;;;;13.90;75.84;102247.53;4992780;28;20384;-86
2022/07/15 06:21:41;;;;;;;4.97;1.60;;;;;;;13.96;75.78;102249.88;5006756;28;20397;-86
2022/07/15 06:24:07;;;;;;;3.83;1.17;;;;;;;13.98;74.11;102247.91;5023733;28;20064;-88
2022/07/15 06:26:33;;;;;;;11.80;1.48;;;;;;;14.06;73.52;102252.00;5018606;28;20037;-86
2022/07/15 06:28:58;;;;;;;5.47;1.20;;;;;;;14.10;74.07;102251.72;5020350;28;20033;-87
2022/07/15 06:31:23;;;;;;;6.38;1.33;;;;;;;14.12;75.03;102241.53;5006731;28;20034;-88
2022/07/15 06:33:50;;;;;;;6.43;1.52;;;;;;;14.18;73.44;102246.63;4990505;28;20040;-88
2022/07/15 06:36:16;;;;;;;4.25;1.10;;;;;;;14.26;73.69;102252.47;5005712;28;20240;-88
2022/07/15 06:38:44;;;;;;;5.97;1.98;;;;;;;14.30;73.19;102250.41;4990641;28;20025;-88
2022/07/15 06:41:10;;;;;;;3.17;1.20;;;;;;;14.29;72.10;102237.72;5006379;28;20062;-87
2022/07/15 06:43:35;;;;;;;2.60;1.00;;;;;;;14.38;72.67;102245.31;5006875;28;20084;-85
2022/07/15 06:46:08;;;;;;;5.28;1.20;;;;;;;14.39;72.23;102247.06;5027310;28;20060;-87
2022/07/15 06:48:34;;;;;;;8.95;1.13;;;;;;;14.42;72.73;102249.63;5026845;28;20122;-88
2022/07/15 06:50:59;;;;;;;5.85;1.30;;;;;;;14.46;73.37;102253.91;5008893;28;20084;-88
2022/07/15 06:53:25;;;;;;;5.75;1.20;;;;;;;14.47;72.55;102243.84;4990519;28;20033;-85
2022/07/15 06:55:52;;;;;;;5.28;1.23;;;;;;;14.53;73.31;102247.06;5006558;28;20033;-87
2022/07/15 06:58:17;;;;;;;10.50;2.25;;;;;;;14.60;72.50;102247.53;4995619;28;20037;-89
2022/07/15 07:00:43;;;;;;;4.85;1.63;;;;;;;14.68;71.93;102255.22;5005014;28;20092;-85
2022/07/15 07:03:08;;;;;;;8.82;1.60;;;;;;;14.68;71.27;102247.00;5022863;28;20038;-86
2022/07/15 07:05:33;;;;;;;7.20;1.30;;;;;;;14.73;71.41;102253.06;5013145;28;20092;-86
2022/07/15 07:08:01;;;;;;;4.72;1.25;;;;;;;14.77;71.30;102251.88;5011513;28;20051;-87
2022/07/15 07:10:27;;;;;;;4.47;1.38;;;;;;;14.85;71.68;102263.19;5006203;28;20041;-85
2022/07/15 07:12:53;;;;;;;12.50;1.60;;;;;;;14.90;71.94;102257.41;5019414;28;20084;-87
2022/07/15 07:15:20;;;;;;;6.22;1.60;;;;;;;14.94;70.68;102256.22;5006520;28;20040;-87
2022/07/15 07:17:46;;;;;;;4.68;1.35;;;;;;;15.01;71.13;102252.06;4989780;28;20034;-86
2022/07/15 07:20:12;;;;;;;5.75;1.27;;;;;;;15.12;72.20;102254.06;4990269;28;20096;-88
2022/07/15 07:22:37;;;;;;;4.88;1.23;;;;;;;15.26;68.13;102256.75;4989825;28;20109;-86
2022/07/15 07:25:03;;;;;;;4.03;0.90;;;;;;;15.39;68.05;102265.88;5006680;28;20061;-87
2022/07/15 07:27:29;;;;;;;4.72;1.05;;;;;;;15.64;68.92;102259.56;5020451;28;20191;-87
2022/07/15 07:29:54;;;;;;;2.90;0.88;;;;;;;15.86;65.43;102267.13;5007017;28;20113;-87
2022/07/15 07:32:19;;;;;;;3.75;0.90;;;;;;;15.95;63.79;102262.84;5023030;28;20216;-89
2022/07/15 07:34:45;;;;;;;3.60;0.70;;;;;;;15.96;63.92;102273.72;5005161;28;20026;-87
2022/07/15 07:37:10;;;;;;;3.80;0.95;;;;;;;16.01;64.91;102273.38;4989908;28;20030;-86
2022/07/15 07:39:36;;;;;;;4.80;1.00;;;;;;;16.11;65.08;102274.44;5023154;28;20050;-87
2022/07/15 07:42:01;;;;;;;4.00;0.98;;;;;;;16.06;64.92;102272.03;5006035;28;21838;-88
2022/07/15 07:44:27;;;;;;;4.53;1.17;;;;;;;15.98;64.86;102277.19;4988764;28;20136;-90
2022/07/15 07:46:52;;;;;;;4.82;1.45;;;;;;;15.87;64.67;102285.34;5006395;28;20129;-88
2022/07/15 07:49:17;;;;;;;10.50;1.52;;;;;;;15.84;65.15;102276.44;5005419;28;20022;-86
2022/07/15 07:51:43;;;;;;;7.95;1.15;;;;;;;15.87;64.64;102274.38;5022532;28;20065;-89
2022/07/15 07:54:09;;;;;;;2.92;1.25;;;;;;;15.92;65.19;102274.91;5007869;28;20380;-87
2022/07/15 07:56:35;;;;;;;3.67;1.00;;;;;;;16.05;66.31;102273.03;5006634;28;20033;-86
2022/07/15 07:59:00;;;;;;;4.03;0.95;;;;;;;16.21;65.26;102269.16;5019947;28;20543;-86
2022/07/15 08:01:26;;;;;;;4.28;1.08;;;;;;;16.33;66.86;102277.38;5005387;28;20539;-85
2022/07/15 08:03:51;;;;;;;6.85;1.13;;;;;;;16.43;65.72;102277.56;5017022;28;20033;-86
2022/07/15 08:06:17;;;;;;;2.67;0.95;;;;;;;16.57;65.20;102269.19;4988950;28;20052;-86
2022/07/15 08:08:43;;;;;;;3.38;0.90;;;;;;;16.76;60.80;102267.81;5008857;28;20045;-86
2022/07/15 08:11:10;;;;;;;2.80;0.70;;;;;;;16.96;61.59;102267.16;5025842;28;20042;-85
2022/07/15 08:13:36;;;;;;;2.55;0.80;;;;;;;17.35;60.83;102267.84;4992429;28;20084;-86
2022/07/15 08:16:01;;;;;;;4.25;0.90;;;;;;;18.06;59.34;102269.47;5025929;28;20041;-86
2022/07/15 08:18:28;;;;;;;3.33;0.73;;;;;;;18.44;56.62;102270.97;5010563;28;20679;-89
2022/07/15 08:20:53;;;;;;;5.13;1.05;;;;;;;18.98;56.45;102277.47;4992927;28;20076;-90
2022/07/15 08:23:21;;;;;;;5.00;1.00;;;;;;;19.35;55.92;102273.34;5008794;28;20062;-88
2022/07/15 08:25:49;;;;;;;4.72;0.93;;;;;;;19.93;56.21;102286.66;5009046;28;20029;-88
2022/07/15 08:28:15;;;;;;;4.45;1.13;;;;;;;20.41;54.56;102276.84;4991474;28;20345;-86
2022/07/15 08:30:41;;;;;;;4.32;0.77;;;;;;;21.10;51.36;102287.94;5009534;28;20033;-86
2022/07/15 08:33:06;;;;;;;4.93;1.00;;;;;;;21.27;47.01;102280.81;5008939;28;20125;-87
2022/07/15 08:35:34;;;;;;;6.45;1.40;;;;;;;21.56;46.92;102272.50;5010596;28;20117;-90
2022/07/15 08:38:05;;;;;;;3.67;1.00;;;;;;;21.60;47.36;102277.59;5009109;28;20071;-86
2022/07/15 08:40:31;;;;;;;6.53;1.10;;;;;;;21.54;44.26;102271.75;5026841;28;20128;-86
2022/07/15 08:42:57;;;;;;;7.03;0.80;;;;;;;22.08;48.13;102273.81;5022005;28;20100;-88
2022/07/15 08:45:22;;;;;;;11.45;1.25;;;;;;;22.60;47.16;102271.41;5007275;28;20037;-87
2022/07/15 08:47:48;;;;;;;3.53;0.93;;;;;;;22.75;46.54;102260.66;5011832;28;20091;-87
2022/07/15 08:50:17;;;;;;;9.25;1.30;;;;;;;22.49;42.81;102268.00;5007842;28;20030;-86
2022/07/15 08:52:45;;;;;;;3.25;1.00;;;;;;;22.85;47.21;102261.47;5009498;28;20030;-86
2022/07/15 08:55:12;;;;;;;3.78;1.15;;;;;;;23.05;43.15;102255.81;5011117;28;20156;-86
2022/07/15 08:57:38;;;;;;;3.05;0.90;;;;;;;22.96;41.43;102254.84;5009315;28;20036;-87
2022/07/15 09:00:09;;;;;;;5.13;0.95;;;;;;;22.80;41.70;102254.63;5009988;28;20034;-91
2022/07/15 09:02:37;;;;;;;3.70;0.95;;;;;;;22.98;44.62;102251.91;5025976;28;20049;-87
2022/07/15 09:05:22;;;;;;;3.35;1.00;;;;;;;23.37;46.68;102258.88;5017607;28;20093;-89
2022/07/15 09:08:04;;;;;;;6.78;1.15;;;;;;;22.99;44.76;102259.19;5027105;28;20696;-89
2022/07/15 09:10:42;;;;;;;;;;;;;;;22.81;45.92;102257.28;5012888;28;20437;-88
2022/07/15 09:13:09;;;;;;;5.25;1.35;;;;;;;22.69;46.75;102252.09;5021516;28;20415;-85
2022/07/15 09:15:40;;;;;;;7.78;1.10;;;;;;;23.54;46.19;102245.09;5021652;28;20044;-86
2022/07/15 09:18:11;;;;;;;5.20;0.75;;;;;;;23.38;39.77;102246.72;5009860;28;20076;-87
2022/07/15 09:20:39;;;;;;;5.35;1.00;;;;;;;23.36;43.40;102247.91;5010111;28;20040;-88
2022/07/15 09:23:05;;;;;;;2.67;0.95;;;;;;;23.01;41.05;102240.50;5011166;28;20495;-88
2022/07/15 09:25:35;;;;;;;5.03;0.85;;;;;;;23.02;42.32;102248.66;4992626;28;20034;-86
2022/07/15 09:28:03;;;;;;;5.45;1.27;;;;;;;23.39;44.14;102250.38;5022391;28;20362;-88
2022/07/15 09:36:25;;;;;;;2.08;0.70;;;;;;;24.28;42.13;102249.25;5009441;28;20322;-89
2022/07/15 09:38:54;;;;;;;6.78;1.17;;;;;;;24.26;41.95;102251.34;5025508;28;20558;-87
2022/07/15 09:41:36;;;;;;;4.40;0.90;;;;;;;24.86;42.36;102251.22;5024658;28;20169;-86
2022/07/15 09:44:05;;;;;;;3.40;1.10;;;;;;;24.85;39.58;102249.47;5016794;28;20401;-86
2022/07/15 09:46:49;;;;;;;4.57;1.15;;;;;;;25.08;40.64;102255.28;5008551;28;20037;-86
2022/07/15 09:49:26;;;;;;;3.75;0.90;;;;;;;25.16;37.76;102253.38;5007066;28;20049;-86
2022/07/15 09:52:09;;;;;;;2.15;0.88;;;;;;;25.24;41.70;102258.09;5024973;28;20602;-86
2022/07/15 09:54:38;;;;;;;5.47;1.13;;;;;;;25.31;35.60;102239.63;5009702;28;20049;-89
2022/07/15 09:57:16;;;;;;;4.22;0.77;;;;;;;24.54;38.56;102244.53;5029053;28;20029;-87
2022/07/15 09:59:43;;;;;;;6.82;1.20;;;;;;;24.19;39.40;102238.06;4995988;28;20040;-86
2022/07/15 10:02:09;;;;;;;13.60;1.83;;;;;;;24.51;41.56;102239.28;5009679;28;20018;-85
2022/07/15 10:04:35;;;;;;;4.97;0.98;;;;;;;24.64;39.91;102236.91;5022446;28;20042;-87
2022/07/15 10:07:02;;;;;;;4.25;0.90;;;;;;;24.53;39.12;102236.31;5007786;28;20080;-87
2022/07/15 10:09:31;;;;;;;3.03;0.90;;;;;;;24.64;42.26;102233.25;5007106;28;20045;-85
2022/07/15 10:12:04;;;;;;;4.53;0.85;;;;;;;25.00;37.90;102238.56;5012294;28;20370;-86
2022/07/15 10:14:59;;;;;;;7.00;1.20;;;;;;;24.84;37.43;102228.25;5009107;28;20374;-89
2022/07/15 10:17:45;;;;;;;2.92;0.80;;;;;;;24.94;39.02;102226.16;5016263;28;20033;-85
2022/07/15 10:20:13;;;;;;;4.70;1.10;;;;;;;25.28;39.47;102225.19;5009044;28;20556;-85
2022/07/15 10:23:07;;;;;;;6.35;1.13;;;;;;;26.06;38.95;102222.63;5006572;28;20508;-86
2022/07/15 10:25:53;;;;;;;4.05;1.20;;;;;;;26.66;36.95;102226.75;5022015;28;20174;-85
2022/07/15 10:28:42;;;;;;;3.80;0.82;;;;;;;26.84;38.21;102220.88;5004466;28;20037;-86
2022/07/15 10:31:18;;;;;;;3.55;0.93;;;;;;;26.71;38.86;102210.31;5006970;28;20500;-85
2022/07/15 10:34:04;;;;;;;5.03;0.85;;;;;;;27.06;36.41;102217.22;5008278;28;20038;-86
2022/07/15 10:36:47;;;;;;;2.30;0.70;;;;;;;27.45;36.32;102211.50;5027566;28;20048;-87
2022/07/15 10:39:14;;;;;;;2.78;1.00;;;;;;;27.06;35.45;102219.16;5027534;28;20088;-86
2022/07/15 10:41:58;;;;;;;3.50;1.10;;;;;;;26.49;36.51;102217.63;5025219;28;20473;-85
2022/07/15 10:44:33;;;;;;;3.22;0.75;;;;;;;26.10;36.20;102217.56;5010840;28;20056;-85
2022/07/15 10:47:13;;;;;;;5.65;0.77;;;;;;;26.32;38.52;102213.13;5007415;28;20444;-85
2022/07/15 10:49:44;;;;;;;4.05;1.23;;;;;;;26.36;37.40;102207.00;5021717;28;20087;-85
2022/07/15 10:52:14;;;;;;;4.65;0.98;;;;;;;25.95;35.07;102209.06;5014058;28;20517;-86
2022/07/15 10:54:43;;;;;;;4.57;0.68;;;;;;;26.03;35.67;102199.81;5027230;28;20192;-84
2022/07/15 10:57:10;;;;;;;2.78;1.00;;;;;;;25.82;33.05;102198.47;5024243;28;20488;-85
2022/07/15 10:59:41;;;;;;;3.97;1.08;;;;;;;25.49;34.95;102197.66;5030346;28;20045;-84
2022/07/15 11:02:06;;;;;;;3.47;0.90;;;;;;;25.35;36.52;102195.56;5010376;28;20033;-85
2022/07/15 11:04:33;;;;;;;2.00;0.77;;;;;;;25.58;38.14;102192.94;5024069;28;20045;-85
2022/07/15 11:07:01;;;;;;;3.00;0.70;;;;;;;25.93;39.04;102186.97;5010730;28;20064;-85
2022/07/15 11:09:47;;;;;;;3.40;1.05;;;;;;;26.34;36.67;102185.88;5020853;28;20452;-87
2022/07/15 11:12:13;;;;;;;3.30;0.75;;;;;;;26.16;36.38;102181.47;5022381;28;20052;-85
2022/07/15 11:14:45;;;;;;;3.28;0.93;;;;;;;26.51;37.19;102183.94;5005434;28;20152;-85
2022/07/15 11:17:12;;;;;;;6.45;1.10;;;;;;;26.85;37.93;102183.50;5001187;28;20037;-85
2022/07/15 11:19:38;;;;;;;1.92;0.85;;;;;;;27.27;34.29;102183.00;5020917;28;20037;-85
2022/07/15 11:22:04;;;;;;;2.83;0.70;;;;;;;27.59;34.16;102190.22;5006912;28;20041;-85
2022/07/15 11:24:30;;;;;;;5.30;0.75;;;;;;;27.86;31.54;102187.88;5017827;28;20476;-86
2022/07/15 11:26:59;;;;;;;3.05;0.70;;;;;;;28.07;32.26;102175.88;5021799;28;20580;-85
2022/07/15 11:29:25;;;;;;;5.75;0.88;;;;;;;28.03;32.48;102178.22;5025176;28;20797;-86
2022/07/15 11:31:51;;;;;;;2.20;0.60;;;;;;;27.50;29.88;102168.13;5007497;28;20180;-85
2022/07/15 11:34:17;;;;;;;5.57;0.90;;;;;;;26.88;31.52;102170.06;5022449;28;20038;-86
2022/07/15 11:36:42;;;;;;;3.13;0.70;;;;;;;26.68;33.72;102166.88;5023113;28;20037;-86